Time;durP1;ratioP1;P1;durP2;ratioP2;P2;SDS_P1;SDS_P2;PMS_P1;PMS_P2;Temp;Humidity;BMP_temperature;BMP_pressure;BME280_temperature;BME280_humidity;BME280_pressure;Samples;Min_cycle;Max_cycle;Signal;HPM_P1;HPM_P2
2023/08/22 00:02:21;;;;;;;8.13;6.65;;;;;;;;;;5029557;28;20053;-67
2023/08/22 00:04:47;;;;;;;11.02;7.30;;;;;;;;;;5029690;28;20132;-67
2023/08/22 00:07:14;;;;;;;14.43;7.43;;;;;;;;;;5029429;28;20052;-64
2023/08/22 00:09:40;;;;;;;10.80;7.25;;;;;;;;;;5028992;28;20390;-64
2023/08/22 00:12:09;;;;;;;10.75;7.28;;;;;;;;;;5029251;28;20049;-64
2023/08/22 00:14:36;;;;;;;12.80;7.30;;;;;;;;;;5029799;28;20049;-64
2023/08/22 00:17:03;;;;;;;12.43;7.15;;;;;;;;;;5029056;28;20410;-67
2023/08/22 00:19:30;;;;;;;9.05;6.75;;;;;;;;;;5028646;28;20520;-64
2023/08/22 00:21:56;;;;;;;8.18;6.90;;;;;;;;;;5029934;28;20495;-64
2023/08/22 00:24:24;;;;;;;9.45;7.03;;;;;;;;;;5029348;28;20411;-64
2023/08/22 00:26:51;;;;;;;12.27;7.38;;;;;;;;;;5029757;28;20355;-64
2023/08/22 00:29:18;;;;;;;10.07;7.70;;;;;;;;;;5028431;28;20053;-64
2023/08/22 00:31:45;;;;;;;11.55;7.13;;;;;;;;;;5028703;28;20045;-64
2023/08/22 00:34:12;;;;;;;13.38;7.15;;;;;;;;;;5029160;28;20046;-64
2023/08/22 00:36:38;;;;;;;16.25;7.95;;;;;;;;;;5029261;28;20056;-65
2023/08/22 00:39:05;;;;;;;8.05;6.93;;;;;;;;;;5028428;28;20045;-64
2023/08/22 00:41:32;;;;;;;9.52;6.75;;;;;;;;;;5028966;28;20049;-66
2023/08/22 00:43:59;;;;;;;9.82;6.72;;;;;;;;;;5029098;28;20050;-64
2023/08/22 00:46:29;;;;;;;10.77;7.30;;;;;;;;;;5029842;28;20376;-64
2023/08/22 00:48:56;;;;;;;10.18;6.82;;;;;;;;;;5029577;28;20057;-64
2023/08/22 00:51:23;;;;;;;9.18;6.88;;;;;;;;;;5029271;28;20068;-64
2023/08/22 00:53:49;;;;;;;10.25;7.60;;;;;;;;;;5029664;28;20483;-64
2023/08/22 00:56:16;;;;;;;7.93;7.05;;;;;;;;;;5029018;28;20049;-64
2023/08/22 00:58:44;;;;;;;10.20;7.38;;;;;;;;;;5029055;28;20410;-66
2023/08/22 01:01:10;;;;;;;11.60;7.80;;;;;;;;;;5027738;28;20093;-64
2023/08/22 01:03:38;;;;;;;11.70;7.35;;;;;;;;;;5029303;28;20046;-64
2023/08/22 01:06:12;;;;;;;11.48;7.53;;;;;;;;;;5028684;28;20049;-65
2023/08/22 01:08:42;;;;;;;11.15;6.70;;;;;;;;;;5029101;28;20406;-64
2023/08/22 01:11:16;;;;;;;9.82;6.95;;;;;;;;;;5028354;28;20513;-64
2023/08/22 01:13:46;;;;;;;9.63;7.25;;;;;;;;;;5029063;28;20795;-67
2023/08/22 01:16:14;;;;;;;9.88;7.55;;;;;;;;;;5028849;28;20686;-65
2023/08/22 01:18:42;;;;;;;8.63;6.60;;;;;;;;;;5028866;28;20518;-65
2023/08/22 01:21:18;;;;;;;13.93;7.47;;;;;;;;;;5027758;28;20049;-64
2023/08/22 01:23:46;;;;;;;10.68;7.35;;;;;;;;;;5029154;28;20112;-65
2023/08/22 01:26:13;;;;;;;13.80;7.60;;;;;;;;;;5028250;28;20056;-64
2023/08/22 01:28:43;;;;;;;10.05;7.95;;;;;;;;;;5028966;28;20050;-65
2023/08/22 01:31:19;;;;;;;10.00;8.10;;;;;;;;;;5028133;28;20049;-65
2023/08/22 01:33:52;;;;;;;10.48;8.20;;;;;;;;;;5029096;28;20049;-67
2023/08/22 01:36:21;;;;;;;9.80;8.55;;;;;;;;;;5028635;28;20099;-64
2023/08/22 01:38:50;;;;;;;13.25;8.27;;;;;;;;;;5028665;28;20045;-64
2023/08/22 01:41:17;;;;;;;10.65;8.20;;;;;;;;;;5030321;28;20049;-66
2023/08/22 01:43:44;;;;;;;9.90;8.35;;;;;;;;;;5032160;28;20046;-64
2023/08/22 01:46:11;;;;;;;11.05;8.30;;;;;;;;;;5032428;28;20491;-64
2023/08/22 01:48:37;;;;;;;11.25;9.30;;;;;;;;;;5031696;28;20054;-64
2023/08/22 01:51:04;;;;;;;11.73;7.95;;;;;;;;;;5031358;28;20056;-65
2023/08/22 01:53:31;;;;;;;13.77;8.50;;;;;;;;;;5032129;28;20050;-65
2023/08/22 01:56:00;;;;;;;11.50;8.85;;;;;;;;;;5032742;28;20132;-64
2023/08/22 01:58:27;;;;;;;11.70;8.07;;;;;;;;;;5031964;28;20089;-65
2023/08/22 02:00:53;;;;;;;11.05;7.65;;;;;;;;;;5031385;28;20041;-65
2023/08/22 02:03:20;;;;;;;11.15;8.15;;;;;;;;;;5031753;28;20056;-65
2023/08/22 02:05:47;;;;;;;12.05;7.82;;;;;;;;;;5031780;28;20049;-65
2023/08/22 02:08:14;;;;;;;9.85;8.35;;;;;;;;;;5031357;28;20055;-64
2023/08/22 02:10:41;;;;;;;12.82;8.07;;;;;;;;;;5031051;28;20049;-66
2023/08/22 02:13:09;;;;;;;16.08;8.10;;;;;;;;;;5031830;28;20048;-64
2023/08/22 02:15:35;;;;;;;9.27;7.88;;;;;;;;;;5031188;28;20510;-65
2023/08/22 02:18:02;;;;;;;14.63;8.27;;;;;;;;;;5031522;28;20545;-65
2023/08/22 02:20:29;;;;;;;10.45;7.30;;;;;;;;;;5030281;28;20056;-65
2023/08/22 02:22:55;;;;;;;9.35;7.95;;;;;;;;;;5031761;28;20041;-64
2023/08/22 02:25:22;;;;;;;10.60;7.78;;;;;;;;;;5031106;28;20502;-64
2023/08/22 02:27:48;;;;;;;10.90;8.20;;;;;;;;;;5031613;28;20127;-64
2023/08/22 02:30:16;;;;;;;11.20;8.13;;;;;;;;;;5030035;28;20049;-64
2023/08/22 02:32:43;;;;;;;10.93;7.72;;;;;;;;;;5030930;28;20402;-65
2023/08/22 02:35:09;;;;;;;9.57;7.88;;;;;;;;;;5031347;28;20046;-64
2023/08/22 02:37:36;;;;;;;9.00;8.05;;;;;;;;;;5031538;28;20393;-64
2023/08/22 02:40:06;;;;;;;10.15;8.38;;;;;;;;;;5030407;28;20530;-64
2023/08/22 02:42:32;;;;;;;15.30;8.60;;;;;;;;;;5031233;28;20415;-65
2023/08/22 02:44:59;;;;;;;10.77;8.32;;;;;;;;;;5031403;28;20495;-65
2023/08/22 02:47:29;;;;;;;9.18;8.27;;;;;;;;;;5030493;28;20049;-65
2023/08/22 02:49:55;;;;;;;11.68;7.90;;;;;;;;;;5030359;28;20558;-64
2023/08/22 02:52:22;;;;;;;9.57;7.95;;;;;;;;;;5030453;28;20517;-64
2023/08/22 02:54:49;;;;;;;10.70;7.78;;;;;;;;;;5031282;28;20049;-65
2023/08/22 02:57:15;;;;;;;9.38;7.85;;;;;;;;;;5030573;28;20045;-65
2023/08/22 02:59:42;;;;;;;8.50;7.70;;;;;;;;;;5030121;28;20057;-65
2023/08/22 03:02:08;;;;;;;12.10;8.35;;;;;;;;;;5031340;28;20046;-66
2023/08/22 03:04:37;;;;;;;11.15;7.82;;;;;;;;;;5031028;28;20056;-64
2023/08/22 03:07:04;;;;;;;10.93;8.27;;;;;;;;;;5030106;28;20045;-64
2023/08/22 03:09:31;;;;;;;13.30;7.90;;;;;;;;;;5029995;28;20140;-64
2023/08/22 03:11:57;;;;;;;11.15;8.35;;;;;;;;;;5030328;28;20135;-64
2023/08/22 03:14:25;;;;;;;12.23;8.40;;;;;;;;;;5030527;28;20054;-65
2023/08/22 03:16:52;;;;;;;8.73;7.57;;;;;;;;;;5030937;28;20050;-65
2023/08/22 03:19:18;;;;;;;12.27;7.88;;;;;;;;;;5029888;28;20049;-65
2023/08/22 03:21:46;;;;;;;9.88;7.95;;;;;;;;;;5029816;28;20084;-65
2023/08/22 03:24:13;;;;;;;8.75;7.60;;;;;;;;;;5029993;28;20053;-65
2023/08/22 03:26:39;;;;;;;10.02;7.53;;;;;;;;;;5030353;28;20049;-65
2023/08/22 03:29:06;;;;;;;10.45;7.68;;;;;;;;;;5029307;28;20486;-65
2023/08/22 03:31:33;;;;;;;8.48;7.32;;;;;;;;;;5029960;28;20140;-65
2023/08/22 03:34:00;;;;;;;12.40;7.45;;;;;;;;;;5030142;28;20056;-65
2023/08/22 03:36:26;;;;;;;10.18;8.20;;;;;;;;;;5030435;28;20049;-66
2023/08/22 03:38:55;;;;;;;9.23;7.70;;;;;;;;;;5029523;28;20045;-65
2023/08/22 03:41:21;;;;;;;10.27;7.28;;;;;;;;;;5029241;28;20063;-65
2023/08/22 03:43:48;;;;;;;10.10;8.05;;;;;;;;;;5030021;28;20049;-66
2023/08/22 03:46:14;;;;;;;9.82;7.60;;;;;;;;;;5030287;28;20495;-65
2023/08/22 03:48:41;;;;;;;8.77;7.72;;;;;;;;;;5030040;28;20068;-65
2023/08/22 03:51:08;;;;;;;10.73;7.82;;;;;;;;;;5028790;28;20042;-65
2023/08/22 03:53:35;;;;;;;8.30;7.15;;;;;;;;;;5030127;28;20056;-65
2023/08/22 03:56:03;;;;;;;13.65;7.18;;;;;;;;;;5029296;28;20050;-66
2023/08/22 03:58:29;;;;;;;10.07;7.57;;;;;;;;;;5030165;28;20057;-66
2023/08/22 04:01:02;;;;;;;11.57;7.45;;;;;;;;;;5028885;28;20171;-66
2023/08/22 04:03:29;;;;;;;9.88;7.93;;;;;;;;;;5029516;28;20049;-65
2023/08/22 04:05:55;;;;;;;13.52;9.18;;;;;;;;;;5029446;28;20046;-65
2023/08/22 04:08:22;;;;;;;11.13;8.32;;;;;;;;;;5030021;28;20050;-66
2023/08/22 04:10:49;;;;;;;9.00;7.55;;;;;;;;;;5028583;28;20601;-65
2023/08/22 04:13:17;;;;;;;13.52;7.95;;;;;;;;;;5030329;28;20115;-65
2023/08/22 04:15:43;;;;;;;11.35;7.80;;;;;;;;;;5029165;28;20049;-65
2023/08/22 04:18:10;;;;;;;11.98;8.38;;;;;;;;;;5051848;22;20045;-68
2023/08/22 04:20:36;;;;;;;12.10;7.88;;;;;;;;;;5049710;28;20041;-67
2023/08/22 04:23:03;;;;;;;10.25;8.02;;;;;;;;;;5049654;28;20436;-66
2023/08/22 04:25:30;;;;;;;14.75;8.48;;;;;;;;;;5050352;28;20045;-68
2023/08/22 04:27:56;;;;;;;11.20;8.63;;;;;;;;;;5049921;28;20045;-68
2023/08/22 04:30:24;;;;;;;10.85;7.93;;;;;;;;;;5049666;28;20041;-67
2023/08/22 04:32:51;;;;;;;13.60;8.02;;;;;;;;;;5049680;28;20056;-67
2023/08/22 04:35:18;;;;;;;13.68;9.57;;;;;;;;;;5051103;28;20462;-66
2023/08/22 04:37:44;;;;;;;13.07;9.40;;;;;;;;;;5050785;28;20057;-68
2023/08/22 04:40:11;;;;;;;11.88;8.90;;;;;;;;;;5050844;28;20461;-68
2023/08/22 04:42:38;;;;;;;14.68;9.02;;;;;;;;;;5050642;28;20053;-68
2023/08/22 04:45:06;;;;;;;12.48;8.82;;;;;;;;;;5049927;28;20103;-67
2023/08/22 04:47:34;;;;;;;14.13;9.00;;;;;;;;;;5049443;28;20140;-68
2023/08/22 04:50:00;;;;;;;12.07;9.02;;;;;;;;;;5049230;28;20055;-67
2023/08/22 04:52:27;;;;;;;10.85;8.60;;;;;;;;;;5050080;28;20048;-67
2023/08/22 04:54:54;;;;;;;12.38;7.93;;;;;;;;;;5049810;28;20067;-68
2023/08/22 04:57:23;;;;;;;13.00;9.00;;;;;;;;;;5050172;28;20055;-68
2023/08/22 04:59:50;;;;;;;10.07;7.95;;;;;;;;;;5049206;28;20246;-68
2023/08/22 05:02:16;;;;;;;15.00;8.80;;;;;;;;;;5049993;28;20063;-68
2023/08/22 05:04:44;;;;;;;12.93;7.82;;;;;;;;;;5049332;28;20051;-68
2023/08/22 05:07:11;;;;;;;11.32;7.97;;;;;;;;;;5050364;28;20045;-67
2023/08/22 05:09:37;;;;;;;13.63;9.45;;;;;;;;;;5048694;28;20047;-68
2023/08/22 05:12:05;;;;;;;14.73;8.85;;;;;;;;;;5050096;28;20049;-68
2023/08/22 05:14:33;;;;;;;13.60;8.48;;;;;;;;;;5050910;28;20059;-67
2023/08/22 05:16:59;;;;;;;14.52;8.15;;;;;;;;;;5054025;28;20041;-67
2023/08/22 05:19:26;;;;;;;14.00;8.60;;;;;;;;;;5052822;28;20067;-67
2023/08/22 05:21:54;;;;;;;14.82;8.75;;;;;;;;;;5053430;28;20045;-67
2023/08/22 05:24:20;;;;;;;10.23;7.82;;;;;;;;;;5053919;28;20434;-67
2023/08/22 05:26:47;;;;;;;15.55;8.00;;;;;;;;;;5053164;28;20522;-67
2023/08/22 05:29:14;;;;;;;18.17;7.95;;;;;;;;;;5053585;28;20080;-67
2023/08/22 05:31:41;;;;;;;14.27;7.55;;;;;;;;;;5052349;28;20056;-67
2023/08/22 05:34:07;;;;;;;12.68;7.38;;;;;;;;;;5053338;28;20063;-66
2023/08/22 05:36:34;;;;;;;10.25;7.70;;;;;;;;;;5053366;28;20053;-66
2023/08/22 05:39:03;;;;;;;13.68;7.82;;;;;;;;;;5053365;28;20052;-69
2023/08/22 05:41:29;;;;;;;11.68;7.85;;;;;;;;;;5052463;28;20075;-67
2023/08/22 05:43:56;;;;;;;11.68;7.45;;;;;;;;;;5053254;28;20048;-66
2023/08/22 05:46:22;;;;;;;11.70;7.18;;;;;;;;;;5052950;28;20508;-68
2023/08/22 05:48:49;;;;;;;13.98;8.30;;;;;;;;;;5053405;28;20060;-67
2023/08/22 05:51:16;;;;;;;10.95;7.53;;;;;;;;;;5052593;28;20045;-68
2023/08/22 05:53:43;;;;;;;12.43;7.75;;;;;;;;;;5053366;28;20051;-66
2023/08/22 05:56:10;;;;;;;11.50;7.53;;;;;;;;;;5053313;28;20406;-67
2023/08/22 05:58:37;;;;;;;12.70;8.15;;;;;;;;;;5052810;28;20056;-67
2023/08/22 06:01:09;;;;;;;15.07;7.60;;;;;;;;;;5052889;28;20131;-67
2023/08/22 06:03:35;;;;;;;11.18;7.88;;;;;;;;;;5052501;28;20051;-68
2023/08/22 06:06:02;;;;;;;11.75;7.75;;;;;;;;;;5052965;28;20041;-66
2023/08/22 06:08:29;;;;;;;14.52;8.63;;;;;;;;;;5052085;28;20091;-67
2023/08/22 06:10:55;;;;;;;11.63;8.10;;;;;;;;;;5052503;28;20088;-66
2023/08/22 06:13:24;;;;;;;15.30;7.75;;;;;;;;;;5052316;28;20055;-66
2023/08/22 06:15:50;;;;;;;12.18;8.27;;;;;;;;;;5052611;28;20132;-68
2023/08/22 06:18:17;;;;;;;14.10;8.40;;;;;;;;;;5051891;28;20056;-67
2023/08/22 06:20:44;;;;;;;13.98;8.20;;;;;;;;;;5052810;28;20052;-67
2023/08/22 06:23:10;;;;;;;19.67;8.13;;;;;;;;;;5052828;28;20104;-68
2023/08/22 06:25:37;;;;;;;10.30;7.53;;;;;;;;;;5052353;28;20045;-67
2023/08/22 06:28:05;;;;;;;12.05;8.07;;;;;;;;;;5051509;28;20405;-68
2023/08/22 06:30:33;;;;;;;16.40;7.90;;;;;;;;;;5051648;28;20053;-67
2023/08/22 06:32:59;;;;;;;11.30;7.57;;;;;;;;;;5052750;28;20494;-67
2023/08/22 06:35:28;;;;;;;10.00;7.43;;;;;;;;;;5051989;28;20574;-67
2023/08/22 06:37:54;;;;;;;9.90;7.38;;;;;;;;;;5052502;28;20057;-67
2023/08/22 06:40:22;;;;;;;11.02;7.70;;;;;;;;;;5051350;28;20413;-68
2023/08/22 06:42:49;;;;;;;10.82;7.85;;;;;;;;;;5052188;28;20060;-67
2023/08/22 06:45:15;;;;;;;12.98;7.72;;;;;;;;;;5051597;28;20530;-67
2023/08/22 06:47:43;;;;;;;12.15;8.35;;;;;;;;;;5052072;28;20048;-68
2023/08/22 06:50:10;;;;;;;11.43;8.10;;;;;;;;;;5051361;28;20048;-68
2023/08/22 06:52:37;;;;;;;11.75;7.85;;;;;;;;;;5052176;28;20049;-67
2023/08/22 06:55:03;;;;;;;14.50;8.50;;;;;;;;;;5051745;28;20513;-68
2023/08/22 06:57:30;;;;;;;13.55;8.15;;;;;;;;;;5052067;28;20482;-67
2023/08/22 06:59:57;;;;;;;11.82;8.50;;;;;;;;;;5051355;28;20045;-66
2023/08/22 07:02:23;;;;;;;13.68;8.10;;;;;;;;;;5051837;28;20067;-68
2023/08/22 07:04:51;;;;;;;12.75;7.70;;;;;;;;;;5051604;28;20044;-66
2023/08/22 07:07:18;;;;;;;10.45;7.80;;;;;;;;;;5051009;28;20055;-68
2023/08/22 07:09:47;;;;;;;9.00;6.78;;;;;;;;;;5050655;28;20491;-67
2023/08/22 07:12:13;;;;;;;11.35;7.25;;;;;;;;;;5051331;28;20501;-67
2023/08/22 07:14:42;;;;;;;9.35;7.35;;;;;;;;;;5051623;28;20068;-66
2023/08/22 07:17:08;;;;;;;11.88;7.30;;;;;;;;;;5050838;28;20077;-67
2023/08/22 07:19:35;;;;;;;9.68;7.07;;;;;;;;;;5051304;28;20059;-67
2023/08/22 07:22:03;;;;;;;8.98;6.97;;;;;;;;;;5051326;28;20049;-68
2023/08/22 07:24:29;;;;;;;10.68;6.70;;;;;;;;;;5051344;28;20495;-68
2023/08/22 07:26:56;;;;;;;10.32;7.72;;;;;;;;;;5051135;28;20048;-68
2023/08/22 07:29:22;;;;;;;10.88;7.72;;;;;;;;;;5051438;28;20055;-68
2023/08/22 07:31:49;;;;;;;9.65;7.75;;;;;;;;;;5050321;28;20422;-68
2023/08/22 07:34:16;;;;;;;9.90;8.05;;;;;;;;;;5051239;28;20091;-68
2023/08/22 07:36:42;;;;;;;11.57;7.78;;;;;;;;;;5051287;28;20041;-68
2023/08/22 07:39:10;;;;;;;9.95;7.78;;;;;;;;;;5049266;28;20055;-66
2023/08/22 07:41:37;;;;;;;10.90;8.80;;;;;;;;;;5047610;28;20048;-67
2023/08/22 07:44:03;;;;;;;12.20;8.95;;;;;;;;;;5050014;28;20505;-69
2023/08/22 07:46:30;;;;;;;9.88;8.30;;;;;;;;;;5050458;28;20049;-68
2023/08/22 07:48:56;;;;;;;13.63;8.77;;;;;;;;;;5049680;28;20425;-69
2023/08/22 07:51:23;;;;;;;9.65;7.57;;;;;;;;;;5049886;28;20041;-68
2023/08/22 07:53:50;;;;;;;11.43;8.80;;;;;;;;;;5049625;28;20499;-68
2023/08/22 07:56:17;;;;;;;9.93;8.85;;;;;;;;;;5050344;28;20045;-69
2023/08/22 07:58:45;;;;;;;11.10;9.10;;;;;;;;;;5049719;28;20053;-67
2023/08/22 08:01:11;;;;;;;12.25;9.07;;;;;;;;;;5049899;28;20053;-68
2023/08/22 08:03:38;;;;;;;11.05;8.57;;;;;;;;;;5050118;28;20053;-67
2023/08/22 08:06:04;;;;;;;9.52;8.48;;;;;;;;;;5049502;28;20044;-67
2023/08/22 08:08:31;;;;;;;11.75;9.45;;;;;;;;;;5049659;28;20052;-68
2023/08/22 08:10:58;;;;;;;10.85;9.20;;;;;;;;;;5053832;28;20490;-68
2023/08/22 08:13:26;;;;;;;13.07;8.70;;;;;;;;;;5047795;28;20542;-68
2023/08/22 08:15:52;;;;;;;9.32;8.40;;;;;;;;;;5049438;28;20541;-68
2023/08/22 08:18:19;;;;;;;10.38;7.18;;;;;;;;;;5049657;28;20188;-68
2023/08/22 08:20:45;;;;;;;12.30;8.02;;;;;;;;;;5047124;28;20064;-69
2023/08/22 08:23:12;;;;;;;11.13;7.65;;;;;;;;;;5049891;28;20150;-68
2023/08/22 08:25:39;;;;;;;11.23;8.30;;;;;;;;;;5049915;28;20414;-68
2023/08/22 08:28:06;;;;;;;10.63;7.47;;;;;;;;;;5049242;28;20045;-68
2023/08/22 08:30:34;;;;;;;9.82;7.85;;;;;;;;;;5049347;28;20059;-68
2023/08/22 08:33:03;;;;;;;8.93;7.90;;;;;;;;;;5049525;28;20045;-68
2023/08/22 08:35:30;;;;;;;10.55;7.38;;;;;;;;;;5049887;28;20045;-69
2023/08/22 08:37:57;;;;;;;8.02;6.78;;;;;;;;;;5049585;28;20045;-69
2023/08/22 08:40:24;;;;;;;9.50;7.07;;;;;;;;;;5048858;28;20045;-68
2023/08/22 08:42:50;;;;;;;9.73;7.20;;;;;;;;;;5046540;28;20049;-69
2023/08/22 08:45:17;;;;;;;11.65;6.68;;;;;;;;;;5049709;28;20041;-68
2023/08/22 08:47:46;;;;;;;10.63;7.00;;;;;;;;;;5049051;28;20045;-69
2023/08/22 08:50:13;;;;;;;7.32;6.60;;;;;;;;;;5051121;28;20647;-68
2023/08/22 08:52:40;;;;;;;10.40;5.95;;;;;;;;;;5053686;28;20560;-68
2023/08/22 08:55:10;;;;;;;10.75;6.05;;;;;;;;;;5053301;28;20049;-69
2023/08/22 08:57:36;;;;;;;9.90;7.32;;;;;;;;;;5053443;28;20545;-68
2023/08/22 09:00:04;;;;;;;12.57;7.03;;;;;;;;;;5052388;28;20048;-68
2023/08/22 09:02:31;;;;;;;7.32;6.45;;;;;;;;;;5052715;28;20064;-69
2023/08/22 09:05:00;;;;;;;11.35;5.50;;;;;;;;;;5053442;28;20514;-68
2023/08/22 09:07:27;;;;;;;11.77;5.25;;;;;;;;;;5053751;28;20056;-69
2023/08/22 09:09:53;;;;;;;8.90;6.43;;;;;;;;;;5052238;28;20136;-69
2023/08/22 09:12:20;;;;;;;9.95;6.25;;;;;;;;;;5053428;28;20047;-67
2023/08/22 09:14:48;;;;;;;8.90;5.55;;;;;;;;;;5052926;28;20503;-66
2023/08/22 09:17:15;;;;;;;5.68;5.15;;;;;;;;;;5053340;28;20132;-68
2023/08/22 09:19:42;;;;;;;7.22;4.18;;;;;;;;;;5052651;28;20056;-67
2023/08/22 09:22:13;;;;;;;10.73;5.30;;;;;;;;;;5053069;28;20509;-69
2023/08/22 09:24:40;;;;;;;8.35;5.68;;;;;;;;;;5053060;28;20041;-69
2023/08/22 09:27:07;;;;;;;8.30;5.18;;;;;;;;;;5068981;28;20044;-67
2023/08/22 09:29:35;;;;;;;6.80;5.68;;;;;;;;;;5071966;28;20422;-68
2023/08/22 09:32:05;;;;;;;7.32;5.30;;;;;;;;;;5057190;28;20057;-69
2023/08/22 09:34:33;;;;;;;7.55;4.85;;;;;;;;;;5053301;28;20045;-69
2023/08/22 09:37:00;;;;;;;9.82;5.03;;;;;;;;;;5052679;28;20495;-69
2023/08/22 09:39:30;;;;;;;8.27;5.68;;;;;;;;;;5052774;28;20056;-66
2023/08/22 09:41:57;;;;;;;6.20;4.55;;;;;;;;;;5052538;28;20127;-69
2023/08/22 09:44:25;;;;;;;9.23;5.50;;;;;;;;;;5053159;28;20048;-69
2023/08/22 09:46:53;;;;;;;7.47;4.85;;;;;;;;;;5052907;28;20116;-69
2023/08/22 09:49:20;;;;;;;8.50;5.10;;;;;;;;;;5052320;28;20045;-69
2023/08/22 09:51:48;;;;;;;7.25;4.93;;;;;;;;;;5052134;28;20045;-68
2023/08/22 09:54:15;;;;;;;7.85;5.00;;;;;;;;;;5052250;28;20469;-68
2023/08/22 09:56:44;;;;;;;7.63;4.65;;;;;;;;;;5049238;28;20052;-68
2023/08/22 09:59:13;;;;;;;6.13;4.50;;;;;;;;;;5052070;28;20060;-69
2023/08/22 10:01:40;;;;;;;5.60;4.15;;;;;;;;;;5050785;28;20128;-68
2023/08/22 10:04:07;;;;;;;6.80;3.97;;;;;;;;;;5052003;28;20045;-69
2023/08/22 10:06:36;;;;;;;5.00;4.03;;;;;;;;;;5052463;28;20077;-68
2023/08/22 10:09:07;;;;;;;7.85;4.60;;;;;;;;;;5051708;28;20049;-69
2023/08/22 10:11:37;;;;;;;8.45;4.50;;;;;;;;;;5052017;28;20490;-68
2023/08/22 10:14:07;;;;;;;4.78;4.13;;;;;;;;;;5051831;28;20049;-68
2023/08/22 10:16:34;;;;;;;7.55;4.45;;;;;;;;;;5052393;28;20045;-68
2023/08/22 10:19:02;;;;;;;6.65;4.35;;;;;;;;;;5063273;22;20525;-67
2023/08/22 10:21:32;;;;;;;6.40;4.03;;;;;;;;;;5050678;28;20052;-65
2023/08/22 10:23:59;;;;;;;5.63;3.90;;;;;;;;;;5050784;28;20056;-65
2023/08/22 10:26:28;;;;;;;5.45;3.90;;;;;;;;;;5051369;28;20049;-65
2023/08/22 10:29:15;;;;;;;5.22;3.83;;;;;;;;;;5051248;28;20048;-67
2023/08/22 10:32:20;;;;;;;6.18;3.72;;;;;;;;;;5050375;28;20041;-66
2023/08/22 10:35:22;;;;;;;8.77;3.90;;;;;;;;;;5051525;28;20049;-66
2023/08/22 10:37:49;;;;;;;;;;;;;;;;;;5050190;28;20053;-66
2023/08/22 10:40:35;;;;;;;5.55;3.60;;;;;;;;;;5049739;28;19921;-66
2023/08/22 10:43:13;;;;;;;6.97;3.85;;;;;;;;;;5048463;28;20656;-66
2023/08/22 10:45:49;;;;;;;5.13;3.35;;;;;;;;;;5051397;28;20059;-66
2023/08/22 10:48:17;;;;;;;3.85;3.40;;;;;;;;;;5050766;28;20041;-66
2023/08/22 10:50:45;;;;;;;4.82;3.58;;;;;;;;;;5050234;28;20041;-66
2023/08/22 10:53:17;;;;;;;7.63;3.95;;;;;;;;;;5051142;28;20044;-66
2023/08/22 10:55:44;;;;;;;4.88;3.40;;;;;;;;;;5051464;28;20342;-66
2023/08/22 10:58:33;;;;;;;6.93;3.60;;;;;;;;;;5051076;28;20048;-66
2023/08/22 11:01:01;;;;;;;4.57;3.53;;;;;;;;;;5050407;28;20055;-66
2023/08/22 11:03:28;;;;;;;4.10;3.20;;;;;;;;;;5050652;28;20413;-66
2023/08/22 11:05:55;;;;;;;4.05;3.20;;;;;;;;;;5051206;28;20049;-66
2023/08/22 11:08:22;;;;;;;3.88;3.50;;;;;;;;;;5050600;28;20095;-66
2023/08/22 11:10:49;;;;;;;5.18;3.17;;;;;;;;;;5050087;28;20045;-66
2023/08/22 11:13:16;;;;;;;5.55;3.47;;;;;;;;;;5050383;28;20231;-66
2023/08/22 11:15:43;;;;;;;4.65;3.35;;;;;;;;;;5050637;28;20077;-66
2023/08/22 11:18:11;;;;;;;6.78;3.40;;;;;;;;;;5050774;28;20056;-66
2023/08/22 11:20:42;;;;;;;4.60;3.17;;;;;;;;;;5049385;28;20045;-66
2023/08/22 11:23:09;;;;;;;5.75;3.08;;;;;;;;;;5050718;28;20073;-66
2023/08/22 11:25:37;;;;;;;5.63;3.33;;;;;;;;;;5047698;28;20049;-66
2023/08/22 11:28:04;;;;;;;6.32;2.85;;;;;;;;;;5048589;28;20132;-66
2023/08/22 11:30:31;;;;;;;4.90;3.00;;;;;;;;;;5049129;28;20049;-66
2023/08/22 11:32:57;;;;;;;5.75;2.95;;;;;;;;;;5050281;28;20055;-66
2023/08/22 11:35:26;;;;;;;4.75;3.08;;;;;;;;;;5049970;28;20096;-66
2023/08/22 11:37:52;;;;;;;6.43;3.15;;;;;;;;;;5050210;28;20152;-66
2023/08/22 11:40:19;;;;;;;4.30;3.33;;;;;;;;;;5048479;28;20052;-66
2023/08/22 11:42:47;;;;;;;6.03;3.20;;;;;;;;;;5049593;28;20048;-66
2023/08/22 11:45:17;;;;;;;4.07;3.05;;;;;;;;;;5049657;28;20429;-66
2023/08/22 11:47:46;;;;;;;5.03;2.80;;;;;;;;;;5050085;28;20049;-66
2023/08/22 11:50:14;;;;;;;3.35;2.70;;;;;;;;;;5048932;28;20041;-66
2023/08/22 11:52:42;;;;;;;6.45;2.95;;;;;;;;;;5049889;28;20407;-66
2023/08/22 11:55:10;;;;;;;6.63;3.08;;;;;;;;;;5049646;28;20414;-66
2023/08/22 11:57:39;;;;;;;3.83;2.83;;;;;;;;;;5052811;28;20049;-66
2023/08/22 12:00:08;;;;;;;4.95;2.60;;;;;;;;;;5048789;28;20049;-66
2023/08/22 12:02:35;;;;;;;3.58;2.70;;;;;;;;;;5048241;28;20516;-66
2023/08/22 12:05:02;;;;;;;5.30;2.92;;;;;;;;;;5049694;28;20044;-66
2023/08/22 12:07:29;;;;;;;4.53;2.80;;;;;;;;;;5049267;28;20051;-67
2023/08/22 12:10:01;;;;;;;4.47;2.65;;;;;;;;;;5048215;28;20078;-66
2023/08/22 12:12:28;;;;;;;2.95;2.40;;;;;;;;;;5049469;28;20124;-66
2023/08/22 12:14:54;;;;;;;4.13;2.60;;;;;;;;;;5049648;28;20135;-66
2023/08/22 12:17:21;;;;;;;5.13;3.00;;;;;;;;;;5049093;28;20049;-66
2023/08/22 12:19:47;;;;;;;4.60;2.90;;;;;;;;;;5048215;28;20347;-66
2023/08/22 12:22:14;;;;;;;3.80;2.72;;;;;;;;;;5049426;28;20414;-66
2023/08/22 12:24:43;;;;;;;2.58;2.38;;;;;;;;;;5048247;28;20075;-67
2023/08/22 12:27:11;;;;;;;5.20;2.97;;;;;;;;;;5066254;28;20079;-66
2023/08/22 12:29:39;;;;;;;8.32;3.05;;;;;;;;;;5067610;28;20040;-66
2023/08/22 12:32:06;;;;;;;2.83;2.30;;;;;;;;;;5067337;28;20048;-66
2023/08/22 12:34:32;;;;;;;4.65;2.70;;;;;;;;;;5046384;28;20494;-66
2023/08/22 12:36:59;;;;;;;2.70;2.47;;;;;;;;;;5049026;28;20049;-66
2023/08/22 12:39:26;;;;;;;4.57;2.10;;;;;;;;;;5048348;28;20045;-66
2023/08/22 12:41:52;;;;;;;4.95;2.42;;;;;;;;;;5048688;28;20522;-66
2023/08/22 12:44:20;;;;;;;2.55;2.35;;;;;;;;;;5048961;28;20045;-66
2023/08/22 12:46:47;;;;;;;3.42;2.25;;;;;;;;;;5049140;28;20095;-66
2023/08/22 12:49:13;;;;;;;3.35;2.20;;;;;;;;;;5048883;28;20052;-66
2023/08/22 12:51:40;;;;;;;3.28;2.40;;;;;;;;;;5047892;28;20267;-66
2023/08/22 12:54:06;;;;;;;5.57;2.47;;;;;;;;;;5049084;28;20052;-66
2023/08/22 12:56:33;;;;;;;2.75;2.08;;;;;;;;;;5051767;28;20056;-66
2023/08/22 12:58:59;;;;;;;3.17;1.90;;;;;;;;;;5049379;28;20047;-66
2023/08/22 13:01:27;;;;;;;2.28;1.65;;;;;;;;;;5047718;28;20140;-66
2023/08/22 13:03:54;;;;;;;5.35;2.13;;;;;;;;;;5048921;28;20041;-67
2023/08/22 13:06:21;;;;;;;3.80;2.05;;;;;;;;;;5048435;28;20491;-66
2023/08/22 13:08:48;;;;;;;3.95;1.80;;;;;;;;;;5049071;28;20049;-66
2023/08/22 13:11:15;;;;;;;4.38;2.20;;;;;;;;;;5048234;28;20490;-66
2023/08/22 13:13:42;;;;;;;2.20;1.67;;;;;;;;;;5048645;28;20045;-67
2023/08/22 13:16:08;;;;;;;3.50;1.70;;;;;;;;;;5048627;28;20041;-67
2023/08/22 13:18:36;;;;;;;2.28;1.60;;;;;;;;;;5048445;28;20045;-67
2023/08/22 13:21:03;;;;;;;2.97;1.80;;;;;;;;;;5048132;28;20304;-67
2023/08/22 13:23:30;;;;;;;2.20;1.80;;;;;;;;;;5048605;28;20048;-67
2023/08/22 13:25:56;;;;;;;2.47;1.63;;;;;;;;;;5048245;28;20048;-67
2023/08/22 13:28:23;;;;;;;6.35;1.60;;;;;;;;;;5048265;28;20052;-67
2023/08/22 13:30:49;;;;;;;3.75;1.75;;;;;;;;;;5047766;28;20064;-67
2023/08/22 13:33:16;;;;;;;2.60;1.63;;;;;;;;;;5048007;28;20055;-65
2023/08/22 13:35:44;;;;;;;3.15;1.77;;;;;;;;;;5050171;28;20041;-65
2023/08/22 13:38:10;;;;;;;3.35;1.67;;;;;;;;;;5052540;28;20418;-66
2023/08/22 13:40:37;;;;;;;3.35;1.67;;;;;;;;;;5051078;28;20052;-66
2023/08/22 13:43:04;;;;;;;3.58;1.67;;;;;;;;;;5052585;28;20052;-66
2023/08/22 13:45:31;;;;;;;3.00;1.70;;;;;;;;;;5051899;28;20414;-66
2023/08/22 13:47:58;;;;;;;2.42;1.80;;;;;;;;;;5052162;28;20064;-66
2023/08/22 13:50:24;;;;;;;2.15;1.73;;;;;;;;;;5050930;28;20049;-66
2023/08/22 13:52:52;;;;;;;2.75;1.58;;;;;;;;;;5052413;28;20081;-66
2023/08/22 13:55:18;;;;;;;5.30;1.90;;;;;;;;;;5052069;28;20068;-66
2023/08/22 13:57:45;;;;;;;5.05;2.00;;;;;;;;;;5052226;28;20517;-66
2023/08/22 14:00:13;;;;;;;3.25;1.92;;;;;;;;;;5050761;28;20509;-66
2023/08/22 14:02:39;;;;;;;2.22;1.75;;;;;;;;;;5052345;28;20053;-66
2023/08/22 14:05:07;;;;;;;4.20;1.98;;;;;;;;;;5052277;28;20055;-66
2023/08/22 14:07:33;;;;;;;4.57;1.85;;;;;;;;;;5051795;28;20049;-66
2023/08/22 14:10:01;;;;;;;3.78;1.85;;;;;;;;;;5050865;28;20466;-66
2023/08/22 14:12:28;;;;;;;2.10;1.77;;;;;;;;;;5051305;28;20402;-66
2023/08/22 14:14:54;;;;;;;4.13;2.38;;;;;;;;;;5051427;28;20510;-66
2023/08/22 14:17:21;;;;;;;4.20;1.98;;;;;;;;;;5051210;28;20057;-67
2023/08/22 14:19:49;;;;;;;4.30;2.05;;;;;;;;;;5050780;28;20410;-66
2023/08/22 14:22:15;;;;;;;3.08;1.80;;;;;;;;;;5051116;28;20053;-66
2023/08/22 14:24:42;;;;;;;2.83;1.90;;;;;;;;;;5051805;28;20422;-66
2023/08/22 14:27:10;;;;;;;3.40;1.98;;;;;;;;;;5050942;28;20049;-66
2023/08/22 14:29:37;;;;;;;2.85;2.10;;;;;;;;;;5050679;28;20512;-66
2023/08/22 14:32:04;;;;;;;2.67;1.88;;;;;;;;;;5051301;28;20081;-66
2023/08/22 14:34:30;;;;;;;5.55;2.22;;;;;;;;;;5050798;28;20127;-66
2023/08/22 14:36:57;;;;;;;4.05;2.10;;;;;;;;;;5051318;28;20048;-66
2023/08/22 14:39:25;;;;;;;4.78;2.20;;;;;;;;;;5050705;28;20060;-66
2023/08/22 14:41:52;;;;;;;4.75;2.00;;;;;;;;;;5050215;28;20049;-66